West Pennsboro, Pennsylvania
Current Conditions -  °F | °C
As of 7:56 AM on Thursday 23 Oct 2014 (Local Time) from KCXY Reporting Station
Overcast Overcast  
Wind Chill: 55°   Ceiling: 3300
Heat Index: 55°   Visibility: 10mi
Dew Point: 42°   Wind: 12mph
Humidity: 62%   Direction: 330°NNW
Pressure: 29.9"   Gusts: NA
Location:  40.183°N, 77.4166°W
Report Text: KCXY 231156Z 33010KT 10SM OVC033 13/06 A2990 RMK AO2 SLP125 70006 T01280056 10128 20117 53003
Loading
Personal Weather Stations






























Interactive Weather Map
Tropical Storm Tracking
New forecast layout! Learn more

10-Day Weather Forecast

Advertisements
Track Severe Weather on mobile